METAR Data
IDs: Format: Raw Decoded Include TAF

Data at: 1718 UTC 16 Oct 2021

KVCT 161651Z 03015G26KT 10SM CLR 22/06 A3031 RMK AO2 PK WND 04030/1559 SLP260 T02170056
KVCT 161551Z 04019G24KT 10SM CLR 20/06 A3030 RMK AO2 PK WND 03030/1525 SLP259 T02000056
KVCT 161451Z 04020G27KT 10SM CLR 19/06 A3030 RMK AO2 PK WND 03027/1449 SLP257 T01890056 51018
KVCT 161351Z 02015G21KT 10SM CLR 18/06 A3028 RMK AO2 SLP253 T01780061
KVCT 161251Z 02015G20KT 10SM BKN090 17/07 A3026 RMK AO2 SLP246 T01670072
KVCT 161151Z AUTO 02011G21KT 10SM OVC090 17/08 A3024 RMK AO2 SLP239 T01720078 10211 20172 53024
KVCT 161051Z AUTO 01012KT 10SM SCT085 17/09 A3021 RMK AO2 SLP228 T01720089
KVCT 160951Z AUTO 36013G20KT 10SM OVC070 18/09 A3019 RMK AO2 SLP221 T01830094
KVCT 160851Z AUTO 01015G21KT 10SM OVC060 19/10 A3017 RMK AO2 SLP215 T01940100 51015
KVCT 160751Z AUTO 01017G22KT 10SM BKN055 OVC075 20/11 A3016 RMK AO2 SLP211 T02000111
KVCT 160651Z AUTO 01014G21KT 10SM SCT055 21/13 A3015 RMK AO2 SLP209 T02060128
KVCT 160551Z AUTO 01013G20KT 10SM CLR 21/13 A3013 RMK AO2 SLP200 T02110133 10272 20211 403390211 51015
KVCT 160451Z AUTO 36015KT 10SM CLR 22/14 A3011 RMK AO2 SLP196 T02170144
KVCT 160351Z AUTO 36011KT 10SM BKN046 OVC060 23/16 A3011 RMK AO2 SLP196 T02280156
KVCT 160251Z AUTO 36008KT 10SM OVC043 24/17 A3008 RMK AO2 SLP185 T02390167 53049
KVCT 160151Z 02014G21KT 10SM BKN120 24/17 A3003 RMK AO2 PRESRR SLP165 T02440167
KVCT 160051Z 36012KT 10SM BKN043 BKN050 26/19 A2999 RMK AO2 SLP153 T02610189
KVCT 160035Z 36011G19KT 10SM FEW021 BKN039 BKN050 27/21 A2998 RMK AO2 T02670206
KVCT 152351Z 15007KT 10SM FEW047 27/24 A2994 RMK AO2 SLP136 T02720239 10339 20272 53015
KVCT 152251Z 00000KT 10SM FEW070 29/24 A2992 RMK AO2 SLP128 T02940239
KVCT 152151Z 12007KT 10SM CLR 30/23 A2991 RMK AO2 LTG DSNT SE SLP126 T03000228
KVCT 152051Z VRB04KT 8SM BKN043 34/23 A2989 RMK AO2 SLP121 T03390228 56018
KVCT 151951Z 26004KT 10SM CLR 34/23 A2991 RMK AO2 SLP125 T03390228
KVCT 151851Z VRB03KT 10SM BKN032 33/23 A2993 RMK AO2 SLP133 T03280228
KVCT 151751Z 25004KT 10SM SCT027 BKN042 29/24 A2995 RMK AO2 SLP139 T02940239 10311 20244 50001
KVCT 151651Z 10SM CLR 30/24 A2996 RMK AO2 SLP143 T03000244
KVCT 151625Z 24004KT 8SM FEW019 SCT024 SCT031 28/24 A2997 RMK AO2 T02830239
KVCT 151600Z 23004KT 10SM BKN017 BKN028 BKN036 30/24 A2996 RMK AO2 T03000244
KVCT 151551Z 19007KT 10SM SCT016 SCT021 BKN031 29/25 A2996 RMK AO2 SLP143 T02940250
KVCT 151515Z 19008KT 10SM FEW008 SCT023 SCT028 28/25 A2995 RMK AO2 T02830250
KVCT 151451Z 19006KT 10SM SCT008 BKN019 OVC028 28/26 A2994 RMK AO2 SLP138 T02780256 53019
KVCT 151432Z 20004KT 10SM FEW007 BKN017 OVC029 27/25 A2994 RMK AO2 T02670250
KVCT 151403Z 20004KT 10SM SCT016 BKN024 BKN029 27/25 A2993 RMK AO2 T02670250
KVCT 151351Z 17005KT 9SM SCT022 SCT031 26/25 A2992 RMK AO2 SLP130 T02610250
KVCT 151251Z 15003KT 6SM BR SCT015 SCT031 24/23 A2990 RMK AO2 SLP123 T02440233
KVCT 151244Z 15004KT 6SM BR SCT015 BKN031 OVC050 24/23 A2990 RMK AO2 T02440233
KVCT 151234Z 00000KT 7SM SCT013 BKN029 OVC055 24/23 A2990 RMK AO2 T02440233
KVCT 151225Z 13003KT 8SM FEW013 SCT025 BKN032 24/23 A2990 RMK AO2 T02440233
KVCT 151151Z 11003KT 7SM BKN015 OVC021 24/23 A2989 RMK AO2 SLP118 70150 T02440233 10244 20228 53009
KVCT 151142Z AUTO 00000KT 7SM OVC015 24/23 A2988 RMK AO2 T02440233
KVCT 151100Z AUTO 11003KT 7SM BKN013 OVC027 24/23 A2987 RMK AO2 T02390228
KVCT 151051Z AUTO 00000KT 6SM BR SCT013 BKN027 23/22 A2987 RMK AO2 SLP113 T02330222
KVCT 151034Z AUTO 00000KT 6SM BR FEW014 SCT023 23/23 A2987 RMK AO2 T02330228
KVCT 150951Z AUTO 00000KT 7SM FEW013 BKN023 OVC050 24/23 A2987 RMK AO2 SLP112 T02390228
KVCT 150851Z AUTO 08004KT 7SM OVC015 23/22 A2986 RMK AO2 SLP110 T02330222 58001
KVCT 150829Z AUTO 00000KT 7SM BKN014 BKN021 OVC036 23/22 A2986 RMK AO2 T02280222
KVCT 150751Z AUTO 00000KT 5SM BR SCT033 BKN043 23/22 A2987 RMK AO2 SLP112 T02280222
KVCT 150720Z AUTO 08003KT 6SM BR SCT019 BKN030 OVC041 23/22 A2987 RMK AO2 T02330222
KVCT 150709Z AUTO 07004KT 6SM BR SCT019 BKN028 OVC041 23/22 A2987 RMK AO2 T02330222
KVCT 150651Z AUTO 08004KT 6SM BR FEW019 OVC039 23/22 A2987 RMK AO2 SLP112 T02330222
KVCT 150622Z AUTO 00000KT 6SM BR FEW018 SCT028 OVC037 23/23 A2986 RMK AO2 T02330228
KVCT 150551Z AUTO 06003KT 6SM BR BKN019 BKN027 OVC032 24/23 A2986 RMK AO2 SLP111 T02390228 10261 20228 402720211 50005